Time;durP1;ratioP1;P1;durP2;ratioP2;P2;SDS_P1;SDS_P2;PMS_P1;PMS_P2;Temp;Humidity;BMP_temperature;BMP_pressure;BME280_temperature;BME280_humidity;BME280_pressure;Samples;Min_cycle;Max_cycle;Signal;HPM_P1;HPM_P2
2022/09/03 04:22:32;;;;;;;4.07;2.55;;;;;;;17.21;89.70;99812.63;5089091;28;20670;-67
2022/09/03 04:24:58;;;;;;;4.97;2.72;;;;;;;17.27;88.78;99803.63;5089120;28;20070;-66
2022/09/03 04:27:23;;;;;;;2.20;1.98;;;;;;;17.33;89.21;99797.34;5087746;28;20066;-68
2022/09/03 04:29:49;;;;;;;4.32;2.78;;;;;;;17.35;89.37;99804.16;5088725;28;20119;-67
2022/09/03 04:34:58;;;;;;;3.17;2.58;;;;;;;17.25;91.92;99803.88;5088940;28;20048;-66
2022/09/03 04:37:24;;;;;;;2.90;2.58;;;;;;;17.30;90.68;99806.72;5088794;28;20036;-67
2022/09/03 04:39:49;;;;;;;4.22;2.83;;;;;;;17.26;92.33;99816.28;5070432;28;20055;-67
2022/09/03 04:42:14;;;;;;;4.90;2.65;;;;;;;17.26;92.82;99826.22;5088792;28;20070;-66
2022/09/03 04:44:40;;;;;;;4.13;2.58;;;;;;;17.20;93.70;99817.19;5088670;28;20054;-68
2022/09/03 04:47:06;;;;;;;3.03;2.20;;;;;;;17.20;92.33;99821.75;5088621;28;20044;-67
2022/09/03 04:49:31;;;;;;;3.75;2.40;;;;;;;17.22;91.22;99833.94;5088287;28;20044;-65
2022/09/03 04:51:57;;;;;;;3.70;2.72;;;;;;;17.23;91.45;99826.69;5088533;28;20034;-64
2022/09/03 04:54:22;;;;;;;4.78;2.35;;;;;;;17.26;89.71;99820.84;5088524;28;20064;-65
2022/09/03 04:56:48;;;;;;;4.10;3.00;;;;;;;17.30;89.38;99816.66;5088303;28;20127;-65
2022/09/03 04:59:14;;;;;;;2.85;2.38;;;;;;;17.34;89.13;99817.81;5087954;28;20040;-65
2022/09/03 05:01:39;;;;;;;7.78;3.90;;;;;;;17.19;90.75;99823.59;5088249;28;20064;-66
2022/09/03 05:04:06;;;;;;;11.50;4.88;;;;;;;17.23;91.55;99826.69;5088336;28;20040;-65
2022/09/03 05:06:33;;;;;;;5.32;2.42;;;;;;;17.29;90.20;99828.47;5088205;28;20055;-65
2022/09/03 05:08:58;;;;;;;3.92;2.95;;;;;;;17.31;90.11;99826.38;5088095;28;20039;-66
2022/09/03 05:11:25;;;;;;;2.92;2.38;;;;;;;17.34;89.56;99813.28;5087997;28;20055;-65
2022/09/03 05:13:54;;;;;;;4.10;3.15;;;;;;;17.40;89.18;99816.09;5088068;28;20037;-66
2022/09/03 05:16:20;;;;;;;3.70;2.80;;;;;;;17.35;89.71;99814.94;5088072;28;20040;-66
2022/09/03 05:18:47;;;;;;;5.00;2.77;;;;;;;17.40;89.96;99810.72;5087959;28;20040;-64
2022/09/03 05:21:17;;;;;;;3.35;2.33;;;;;;;17.23;92.11;99824.81;5087569;28;20395;-65
2022/09/03 05:23:49;;;;;;;4.22;2.55;;;;;;;17.25;91.78;99836.16;5087904;28;20420;-66
2022/09/03 05:26:20;;;;;;;2.50;2.08;;;;;;;17.34;91.45;99829.44;5087782;28;20413;-66
2022/09/03 05:28:46;;;;;;;3.20;2.45;;;;;;;17.17;92.91;99843.75;5087705;28;20047;-65
2022/09/03 05:31:15;;;;;;;3.25;2.65;;;;;;;17.21;92.42;99847.59;5087606;28;20099;-66
2022/09/03 05:33:43;;;;;;;3.83;2.47;;;;;;;17.29;91.66;99844.63;5075470;28;20056;-67
2022/09/03 05:36:12;;;;;;;3.17;2.88;;;;;;;17.33;90.79;99843.91;5074055;28;20123;-65
2022/09/03 05:38:38;;;;;;;3.28;2.53;;;;;;;17.39;90.98;99849.44;5074004;28;20041;-65
2022/09/03 05:41:06;;;;;;;3.78;2.55;;;;;;;17.38;90.90;99851.31;5073635;28;20036;-66
2022/09/03 05:43:33;;;;;;;3.67;2.80;;;;;;;17.41;90.63;99845.50;5073928;28;20118;-65
2022/09/03 05:46:04;;;;;;;3.70;2.40;;;;;;;17.45;92.08;99845.84;5073952;28;20024;-66
2022/09/03 05:48:32;;;;;;;3.05;2.53;;;;;;;17.49;91.75;99844.34;5073992;28;20036;-66
2022/09/03 05:51:04;;;;;;;5.10;2.53;;;;;;;17.45;93.74;99862.81;5073585;28;20048;-66
2022/09/03 05:53:33;;;;;;;4.22;3.13;;;;;;;17.50;91.60;99868.34;5073856;28;20032;-65
2022/09/03 05:56:00;;;;;;;3.60;2.25;;;;;;;17.55;92.39;99854.22;5073932;28;20456;-65
2022/09/03 05:58:33;;;;;;;3.13;2.47;;;;;;;17.57;93.32;99869.09;5073763;28;20038;-65
2022/09/03 06:00:59;;;;;;;3.05;2.50;;;;;;;17.60;91.77;99860.56;5073459;28;20140;-62
2022/09/03 06:03:25;;;;;;;4.00;2.88;;;;;;;17.65;92.14;99857.16;5073777;28;20059;-62
2022/09/03 06:05:53;;;;;;;3.40;2.70;;;;;;;17.71;91.66;99867.06;5073619;28;20397;-62
2022/09/03 06:08:21;;;;;;;4.85;2.45;;;;;;;17.72;93.46;99862.50;5073719;28;20618;-62
2022/09/03 06:10:46;;;;;;;2.83;2.53;;;;;;;17.80;93.02;99876.47;5073553;28;20381;-62
2022/09/03 06:13:12;;;;;;;2.65;2.45;;;;;;;17.84;93.44;99864.19;5073633;28;20116;-62
2022/09/03 06:15:38;;;;;;;3.08;2.30;;;;;;;17.90;93.25;99859.75;5072026;28;20045;-62
2022/09/03 06:18:04;;;;;;;4.13;2.72;;;;;;;17.96;93.01;99853.44;5069337;28;20033;-62
2022/09/03 06:20:31;;;;;;;3.50;2.78;;;;;;;17.96;94.07;99852.63;5072722;28;20114;-62
2022/09/03 06:22:56;;;;;;;3.38;2.63;;;;;;;17.99;95.07;99844.88;5073035;28;20032;-62
2022/09/03 06:25:22;;;;;;;3.50;2.80;;;;;;;18.04;92.80;99854.97;5073177;28;20086;-62
2022/09/03 06:27:48;;;;;;;4.22;2.70;;;;;;;18.03;93.50;99861.41;5072799;28;20037;-61
2022/09/03 06:30:15;;;;;;;4.10;2.80;;;;;;;18.03;93.66;99851.47;5072542;28;20044;-62
2022/09/03 06:32:45;;;;;;;3.13;2.55;;;;;;;18.05;92.38;99860.13;5073022;28;20037;-62
2022/09/03 06:35:11;;;;;;;5.25;2.75;;;;;;;18.07;93.39;99860.72;5072970;28;20102;-62
2022/09/03 06:37:40;;;;;;;3.97;2.30;;;;;;;18.07;94.67;99858.03;5072921;28;20040;-62
2022/09/03 06:40:08;;;;;;;3.67;2.72;;;;;;;18.09;98.30;99872.09;5072238;28;20068;-62
2022/09/03 06:42:33;;;;;;;;;;;;;;;18.06;100.00;99869.88;5072361;28;20534;-62
2022/09/03 06:44:59;;;;;;;4.03;2.85;;;;;;;18.09;98.29;99869.41;5072044;28;19924;-62
2022/09/03 06:47:24;;;;;;;3.85;2.60;;;;;;;18.13;100.00;99875.16;5071379;28;20120;-62
2022/09/03 06:49:49;;;;;;;6.07;3.30;;;;;;;18.18;100.00;99883.34;5072244;28;20044;-62
2022/09/03 06:52:15;;;;;;;4.05;2.50;;;;;;;18.18;100.00;99876.09;5072739;28;20068;-62
2022/09/03 06:54:41;;;;;;;5.40;2.97;;;;;;;18.27;99.11;99876.59;5071409;28;20527;-61
2022/09/03 06:57:06;;;;;;;4.95;3.28;;;;;;;18.31;97.94;99876.94;5072582;28;20063;-62
2022/09/03 06:59:32;;;;;;;4.57;2.75;;;;;;;18.34;95.49;99871.09;5054030;28;20040;-62
2022/09/03 07:01:59;;;;;;;4.70;2.72;;;;;;;18.39;96.07;99874.72;5072457;28;20037;-62
2022/09/03 07:04:26;;;;;;;3.88;2.58;;;;;;;18.42;96.83;99873.44;5072467;28;20048;-62
2022/09/03 07:06:51;;;;;;;4.33;2.53;;;;;;;18.52;98.47;99878.22;5072370;28;20123;-62
2022/09/03 07:09:17;;;;;;;4.03;2.55;;;;;;;18.57;100.00;99878.34;5071758;28;20374;-62
2022/09/03 07:11:46;;;;;;;5.20;3.20;;;;;;;18.58;100.00;99875.44;5072266;28;20044;-61
2022/09/03 07:14:12;;;;;;;4.40;2.75;;;;;;;18.63;100.00;99882.81;5072142;28;20044;-62
2022/09/03 07:16:38;;;;;;;4.25;2.97;;;;;;;18.57;100.00;99876.47;5071924;28;20050;-62
2022/09/03 07:19:04;;;;;;;5.25;3.35;;;;;;;18.56;100.00;99879.41;5071765;28;20564;-62
2022/09/03 07:21:40;;;;;;;5.13;3.00;;;;;;;18.62;100.00;99883.88;5071730;28;20068;-62
2022/09/03 07:24:06;;;;;;;5.78;2.97;;;;;;;18.67;100.00;99882.16;5072135;28;20320;-62
2022/09/03 07:26:48;;;;;;;5.10;3.22;;;;;;;18.68;100.00;99891.06;5071843;28;20037;-62
2022/09/03 07:29:15;;;;;;;5.38;3.58;;;;;;;18.67;100.00;99900.22;5071138;28;20040;-63
2022/09/03 07:31:42;;;;;;;5.53;3.55;;;;;;;18.65;100.00;99900.41;5071804;28;20036;-63
2022/09/03 07:34:11;;;;;;;4.13;2.90;;;;;;;18.62;100.00;99900.06;5071619;28;20033;-62
2022/09/03 07:36:46;;;;;;;4.93;3.40;;;;;;;18.54;100.00;99903.94;5071706;28;20032;-62
2022/09/03 07:39:13;;;;;;;4.47;2.97;;;;;;;18.56;100.00;99911.78;5070987;28;20382;-62
2022/09/03 07:41:42;;;;;;;6.22;3.88;;;;;;;18.54;100.00;99914.72;5071419;28;20062;-62
2022/09/03 07:44:07;;;;;;;5.43;3.40;;;;;;;18.48;100.00;99918.34;5071956;28;20380;-62
2022/09/03 07:46:36;;;;;;;6.95;3.13;;;;;;;18.41;100.00;99912.25;5070429;28;20045;-63
2022/09/03 07:49:02;;;;;;;7.00;3.50;;;;;;;18.43;100.00;99919.03;5071223;28;20063;-63
2022/09/03 07:51:34;;;;;;;6.00;3.75;;;;;;;18.31;100.00;99920.06;5070981;28;20036;-62
2022/09/03 07:54:02;;;;;;;4.88;3.50;;;;;;;18.29;100.00;99927.56;5071623;28;20029;-62
2022/09/03 07:56:31;;;;;;;7.10;3.80;;;;;;;18.24;100.00;99927.44;5071241;28;20123;-62
2022/09/03 07:58:57;;;;;;;6.78;3.30;;;;;;;18.18;100.00;99934.56;5070992;28;20508;-63
2022/09/03 08:01:26;;;;;;;6.70;3.63;;;;;;;18.06;100.00;99937.25;5070931;28;20043;-63
2022/09/03 08:03:52;;;;;;;7.15;3.97;;;;;;;17.99;100.00;99955.34;5070181;28;20040;-63
2022/09/03 08:06:20;;;;;;;7.67;3.83;;;;;;;18.00;100.00;99957.03;5071291;28;20040;-62
2022/09/03 08:08:46;;;;;;;;;;;;;;;18.00;100.00;99957.03;5071058;28;20036;-63
2022/09/03 08:11:14;;;;;;;10.90;4.13;;;;;;;17.97;100.00;99959.34;5070737;28;19920;-62
2022/09/03 08:13:43;;;;;;;7.97;3.90;;;;;;;18.03;100.00;99945.78;5071223;28;20052;-63
2022/09/03 08:16:10;;;;;;;8.20;4.13;;;;;;;18.11;100.00;99921.19;5071218;28;20075;-64
2022/09/03 08:18:37;;;;;;;6.60;4.23;;;;;;;17.96;100.00;99907.31;5070977;28;20086;-63
2022/09/03 08:21:06;;;;;;;7.32;3.92;;;;;;;17.85;100.00;99918.88;5070508;28;20385;-63
2022/09/03 08:23:33;;;;;;;7.90;3.97;;;;;;;17.73;100.00;99918.81;5069763;28;20040;-63
2022/09/03 08:26:00;;;;;;;5.25;3.75;;;;;;;17.82;100.00;99922.84;5071242;28;20056;-63
2022/09/03 08:28:26;;;;;;;6.38;3.60;;;;;;;17.88;100.00;99919.25;5070950;28;20432;-62
2022/09/03 08:30:52;;;;;;;4.88;3.10;;;;;;;17.90;100.00;99919.84;5070341;28;20485;-62
2022/09/03 08:33:35;;;;;;;6.97;4.15;;;;;;;17.96;100.00;99912.72;5070935;28;20061;-62
2022/09/03 08:36:12;;;;;;;6.07;4.03;;;;;;;17.97;100.00;99914.34;5071007;28;20061;-63
2022/09/03 08:38:39;;;;;;;5.72;3.95;;;;;;;17.98;100.00;99920.56;5070634;28;20040;-63
2022/09/03 08:41:16;;;;;;;8.65;3.63;;;;;;;18.00;100.00;99916.59;5070671;28;20047;-63
2022/09/03 08:43:50;;;;;;;7.45;4.28;;;;;;;17.92;100.00;99914.22;5071024;28;20498;-63
2022/09/03 08:46:16;;;;;;;8.77;4.55;;;;;;;17.93;100.00;99906.94;5070590;28;20040;-63
2022/09/03 08:48:41;;;;;;;6.50;4.38;;;;;;;17.96;100.00;99907.31;5071018;28;20487;-63
2022/09/03 08:51:10;;;;;;;6.95;4.32;;;;;;;18.05;100.00;99913.19;5070460;28;20040;-63
2022/09/03 08:53:42;;;;;;;12.30;4.80;;;;;;;18.13;100.00;99908.31;5070710;28;20055;-62
2022/09/03 08:56:23;;;;;;;8.55;4.78;;;;;;;18.21;100.00;99909.84;5070713;28;20409;-62
2022/09/03 08:58:48;;;;;;;8.57;5.00;;;;;;;18.35;100.00;99908.59;5070619;28;20316;-63
2022/09/03 09:01:32;;;;;;;7.53;4.38;;;;;;;18.44;100.00;99909.06;5070740;28;20136;-63
2022/09/03 09:04:25;;;;;;;8.52;4.88;;;;;;;18.57;100.00;99910.72;5070570;28;20393;-63
2022/09/03 09:07:05;;;;;;;7.07;4.50;;;;;;;18.60;100.00;99924.56;5070579;28;20498;-63
2022/09/03 09:09:38;;;;;;;9.07;4.78;;;;;;;18.54;100.00;99925.50;5074130;28;20500;-63
2022/09/03 09:12:37;;;;;;;6.25;4.38;;;;;;;18.61;100.00;99914.59;5074182;28;20028;-62
2022/09/03 09:15:12;;;;;;;7.90;4.75;;;;;;;18.68;100.00;99918.84;5074492;28;20041;-63
2022/09/03 09:18:02;;;;;;;9.10;4.15;;;;;;;18.73;100.00;99915.47;5074339;28;20044;-63
2022/09/03 09:20:46;;;;;;;6.68;4.38;;;;;;;18.75;100.00;99917.91;5073922;28;20028;-63
2022/09/03 09:23:14;;;;;;;7.65;4.43;;;;;;;18.86;100.00;99915.22;5073936;28;20062;-63
2022/09/03 09:25:48;;;;;;;5.75;3.90;;;;;;;18.92;100.00;99905.38;5074280;28;20028;-62
2022/09/03 09:28:21;;;;;;;7.97;4.43;;;;;;;18.98;100.00;99915.22;5074297;28;20409;-63
2022/09/03 09:30:50;;;;;;;6.93;4.07;;;;;;;18.99;100.00;99900.66;5073794;28;20527;-63
2022/09/03 09:33:16;;;;;;;6.53;3.95;;;;;;;19.04;100.00;99903.47;5073679;28;20028;-63
2022/09/03 09:35:43;;;;;;;6.70;3.80;;;;;;;19.01;100.00;99911.22;5074222;28;20043;-63
2022/09/03 09:38:10;;;;;;;8.25;4.80;;;;;;;19.13;100.00;99915.53;5073988;28;20434;-63
2022/09/03 09:40:40;;;;;;;6.22;3.97;;;;;;;19.25;100.00;99916.34;5073696;28;20072;-63
2022/09/03 09:43:19;;;;;;;8.98;3.95;;;;;;;19.33;100.00;99919.75;5073889;28;20063;-63
2022/09/03 09:45:52;;;;;;;8.43;5.05;;;;;;;19.46;100.00;99920.28;5074020;28;20056;-64
2022/09/03 09:48:17;;;;;;;7.93;4.32;;;;;;;19.52;100.00;99919.34;5073681;28;20090;-63
2022/09/03 09:50:43;;;;;;;10.32;4.88;;;;;;;19.63;100.00;99911.47;5073738;28;20032;-64
2022/09/03 09:53:13;;;;;;;8.82;4.40;;;;;;;19.76;100.00;99908.47;5073624;28;20040;-62
2022/09/03 09:56:00;;;;;;;8.02;4.18;;;;;;;19.89;100.00;99910.88;5073918;28;20033;-63
2022/09/03 09:58:29;;;;;;;7.78;4.03;;;;;;;20.03;100.00;99911.41;5074009;28;20155;-63
2022/09/03 10:01:16;;;;;;;6.70;4.57;;;;;;;20.17;100.00;99904.63;5072977;28;20048;-63
2022/09/03 10:03:56;;;;;;;9.07;4.57;;;;;;;20.34;100.00;99901.91;5073243;28;20556;-63
2022/09/03 10:09:17;;;;;;;5.85;3.03;;;;;;;20.81;97.41;99898.91;5072836;28;20048;-64
2022/09/03 10:11:49;;;;;;;6.15;3.42;;;;;;;21.07;96.86;99905.50;5073442;28;20037;-63
2022/09/03 10:14:17;;;;;;;7.47;3.90;;;;;;;21.31;94.66;99904.19;5073236;28;20045;-63
2022/09/03 10:16:47;;;;;;;9.18;3.63;;;;;;;21.91;92.53;99911.41;5073150;28;20055;-63
2022/09/03 10:20:25;;;;;;;5.53;3.47;;;;;;;22.67;86.59;99902.28;5072471;28;20378;-63
2022/09/03 10:22:30;;;;;;;5.65;3.50;;;;;;;22.92;81.68;99896.25;5065716;28;20395;-63
2022/09/03 10:24:59;;;;;;;5.65;3.05;;;;;;;23.06;81.52;99894.69;5072072;28;20051;-63
2022/09/03 10:27:25;;;;;;;4.15;2.95;;;;;;;23.21;82.98;99893.94;5072881;28;20051;-63
2022/09/03 10:29:51;;;;;;;6.85;3.03;;;;;;;23.11;81.73;99889.28;5072296;28;20047;-64
2022/09/03 10:32:26;;;;;;;6.13;3.50;;;;;;;23.00;81.80;99888.41;5072970;28;20055;-63
2022/09/03 10:35:02;;;;;;;5.63;3.33;;;;;;;22.88;84.39;99879.63;5072963;28;20094;-63
2022/09/03 10:37:58;;;;;;;4.57;3.47;;;;;;;22.66;85.48;99885.19;5072813;28;20040;-63
2022/09/03 10:41:03;;;;;;;4.75;3.00;;;;;;;22.69;87.21;99892.81;5071697;28;20446;-63
2022/09/03 10:43:34;;;;;;;4.13;2.90;;;;;;;22.50;89.22;99899.75;5072170;28;20064;-63
2022/09/03 10:46:18;;;;;;;5.88;3.08;;;;;;;22.46;88.18;99896.72;5072751;28;20093;-63
2022/09/03 10:48:46;;;;;;;4.05;3.30;;;;;;;22.37;87.78;99903.72;5072365;28;20047;-63
2022/09/03 10:51:19;;;;;;;4.07;2.72;;;;;;;22.14;89.20;99904.03;5071991;28;20063;-64
2022/09/03 10:53:45;;;;;;;7.82;3.75;;;;;;;21.97;88.99;99911.44;5072674;28;20434;-63
2022/09/03 10:56:29;;;;;;;5.93;3.30;;;;;;;21.88;90.56;99920.03;5072652;28;20036;-63
2022/09/03 10:59:27;;;;;;;3.35;2.63;;;;;;;21.77;90.35;99914.75;5072067;28;20567;-63
2022/09/03 11:02:02;;;;;;;5.35;3.00;;;;;;;21.65;90.52;99912.19;5072346;28;20031;-63
2022/09/03 11:04:49;;;;;;;5.45;3.22;;;;;;;21.51;87.40;99906.31;5071226;28;20034;-64
2022/09/03 11:07:20;;;;;;;3.47;3.03;;;;;;;21.45;87.54;99901.09;5072288;28;20070;-63
2022/09/03 11:09:56;;;;;;;5.03;2.92;;;;;;;21.33;89.77;99909.38;5071495;28;20068;-63
2022/09/03 11:12:31;;;;;;;4.40;3.15;;;;;;;21.37;90.87;99914.03;5070945;28;20485;-63
2022/09/03 11:15:04;;;;;;;5.70;3.03;;;;;;;21.31;94.46;99915.03;5072614;28;20367;-64
2022/09/03 11:17:46;;;;;;;6.32;3.22;;;;;;;21.46;93.10;99916.31;5072016;28;20445;-64
2022/09/03 11:20:24;;;;;;;4.82;3.25;;;;;;;21.56;93.58;99914.53;5071061;28;20119;-63
2022/09/03 11:22:56;;;;;;;5.65;3.28;;;;;;;21.85;89.18;99912.41;5072303;28;20066;-63
2022/09/03 11:25:27;;;;;;;7.20;3.28;;;;;;;22.46;87.50;99904.84;5072101;28;20260;-63
2022/09/03 11:28:10;;;;;;;5.78;2.42;;;;;;;23.31;82.29;99901.31;5071931;28;20051;-64
2022/09/03 11:31:17;;;;;;;3.88;2.78;;;;;;;23.87;77.78;99907.78;5070461;28;20029;-63
2022/09/03 11:33:50;;;;;;;3.90;2.65;;;;;;;24.48;75.68;99896.97;5071531;28;20078;-63
2022/09/03 11:36:30;;;;;;;6.93;2.95;;;;;;;24.80;74.96;99895.84;5071597;28;20044;-64
2022/09/03 11:38:56;;;;;;;4.78;3.10;;;;;;;24.86;74.84;99894.75;5070949;28;20094;-64
2022/09/03 11:41:26;;;;;;;4.95;3.20;;;;;;;24.90;74.27;99899.34;5071006;28;20025;-63
2022/09/03 11:43:53;;;;;;;5.22;3.15;;;;;;;25.02;73.73;99887.34;5071497;28;20041;-63
2022/09/03 11:46:21;;;;;;;5.15;3.42;;;;;;;25.44;72.28;99890.50;5071467;28;20036;-64
2022/09/03 11:49:09;;;;;;;5.57;3.33;;;;;;;25.82;70.01;99890.88;5071067;28;20032;-64
2022/09/03 11:51:40;;;;;;;3.90;3.00;;;;;;;25.86;68.01;99882.91;5070105;28;20574;-63
2022/09/03 11:54:27;;;;;;;4.05;2.70;;;;;;;26.34;65.26;99885.81;5071753;28;20098;-63
2022/09/03 11:57:14;;;;;;;4.03;2.97;;;;;;;26.31;69.88;99886.41;5069809;28;20099;-63
2022/09/03 11:59:42;;;;;;;4.55;2.83;;;;;;;27.12;65.32;99874.69;5070581;28;20102;-63
2022/09/03 12:02:10;;;;;;;4.70;2.70;;;;;;;27.65;60.80;99882.78;5071246;28;20032;-64
2022/09/03 12:05:01;;;;;;;3.25;2.53;;;;;;;27.46;61.72;99874.56;5071417;28;20089;-64
2022/09/03 12:07:44;;;;;;;3.70;2.95;;;;;;;27.78;62.80;99881.25;5079565;22;20154;-65
2022/09/03 12:10:31;;;;;;;3.60;2.80;;;;;;;27.09;62.86;99875.28;5051272;28;20561;-66
2022/09/03 12:13:15;;;;;;;4.53;3.35;;;;;;;26.82;63.43;99872.28;5050465;28;20402;-66
2022/09/03 12:16:07;;;;;;;3.83;2.67;;;;;;;26.38;66.00;99886.88;5051535;28;20123;-66
2022/09/03 12:18:35;;;;;;;3.03;2.38;;;;;;;26.09;66.97;99893.13;5051654;28;20409;-66
2022/09/03 12:21:02;;;;;;;3.47;2.30;;;;;;;25.87;66.68;99892.72;5051291;28;20060;-66
2022/09/03 12:23:33;;;;;;;3.45;2.33;;;;;;;25.62;69.75;99885.47;5051467;28;20045;-66
2022/09/03 12:26:03;;;;;;;2.85;2.35;;;;;;;26.12;68.60;99878.91;5051433;28;20127;-66
2022/09/03 12:28:29;;;;;;;3.47;2.83;;;;;;;26.56;66.04;99878.00;5050208;28;20037;-66
2022/09/03 12:31:26;;;;;;;3.75;2.47;;;;;;;26.97;62.81;99878.41;5050936;28;20497;-65
2022/09/03 12:33:53;;;;;;;3.30;2.17;;;;;;;28.00;60.15;99878.72;5038835;28;20064;-66
2022/09/03 12:36:21;;;;;;;3.28;2.25;;;;;;;27.91;60.32;99869.56;5050030;28;20497;-64
2022/09/03 12:38:47;;;;;;;2.95;2.05;;;;;;;28.50;57.35;99876.28;5051525;28;20079;-62
2022/09/03 12:41:26;;;;;;;3.75;2.42;;;;;;;28.55;55.57;99867.16;5051435;28;20037;-66
2022/09/03 12:43:57;;;;;;;2.70;2.20;;;;;;;28.67;55.82;99875.69;5053245;28;20036;-66
2022/09/03 12:46:28;;;;;;;3.03;2.35;;;;;;;28.69;55.14;99876.22;5055361;28;20036;-66
2022/09/03 12:49:01;;;;;;;2.55;2.00;;;;;;;28.82;55.89;99878.19;5055183;28;20119;-65
2022/09/03 12:51:30;;;;;;;6.45;2.53;;;;;;;28.44;57.77;99882.16;5055088;28;20465;-65
2022/09/03 12:53:56;;;;;;;4.10;2.05;;;;;;;27.78;57.93;99879.34;5055189;28;20045;-66
2022/09/03 12:56:22;;;;;;;2.20;2.00;;;;;;;26.96;59.00;99886.88;5055221;28;20068;-64
2022/09/03 12:59:00;;;;;;;3.47;2.00;;;;;;;26.73;58.17;99881.13;5055080;28;20145;-64
2022/09/03 13:01:30;;;;;;;1.83;1.58;;;;;;;26.10;58.63;99894.75;5054886;28;20094;-64
2022/09/03 13:04:08;;;;;;;2.10;1.40;;;;;;;25.85;59.49;99905.84;5055021;28;20045;-65
2022/09/03 13:06:48;;;;;;;2.90;1.80;;;;;;;25.19;61.88;99892.50;5054775;28;20453;-64
2022/09/03 13:09:15;;;;;;;2.55;1.95;;;;;;;24.82;64.34;99899.91;5053609;28;20033;-65
2022/09/03 13:11:43;;;;;;;2.88;2.03;;;;;;;24.39;65.78;99901.34;5054755;28;20041;-65
2022/09/03 13:14:13;;;;;;;2.17;1.95;;;;;;;24.16;67.53;99908.09;5053310;28;20540;-64
2022/09/03 13:16:44;;;;;;;2.83;1.85;;;;;;;24.41;69.35;99901.06;5054619;28;20060;-63
2022/09/03 13:19:28;;;;;;;2.03;1.60;;;;;;;24.58;65.89;99905.16;5054663;28;20040;-64
2022/09/03 13:22:15;;;;;;;2.20;1.60;;;;;;;25.32;66.09;99911.00;5054547;28;20466;-65
2022/09/03 13:25:00;;;;;;;1.75;1.30;;;;;;;25.73;61.28;99910.81;5054680;28;20471;-65
2022/09/03 13:27:36;;;;;;;2.20;1.20;;;;;;;26.47;59.54;99913.34;5054689;28;20029;-64
2022/09/03 13:30:12;;;;;;;1.45;1.17;;;;;;;27.14;54.59;99909.97;5054391;28;20033;-65
2022/09/03 13:32:53;;;;;;;1.48;1.10;;;;;;;27.99;52.92;99904.47;5054475;28;20120;-64
2022/09/03 13:35:56;;;;;;;0.75;0.75;;;;;;;28.55;47.46;99900.84;5054543;28;20178;-64
2022/09/03 13:38:49;;;;;;;0.82;0.80;;;;;;;29.11;48.76;99896.28;5054433;28;20033;-64
2022/09/03 13:41:34;;;;;;;1.20;0.60;;;;;;;29.10;46.39;99892.72;5054235;28;20035;-63
2022/09/03 13:44:31;;;;;;;0.70;0.52;;;;;;;28.95;43.63;99883.97;5054334;28;20041;-64
2022/09/03 13:47:01;;;;;;;0.32;0.30;;;;;;;28.93;43.83;99884.28;5053612;28;20406;-64
2022/09/03 13:52:51;;;;;;;0.40;0.40;;;;;;;28.42;44.92;99881.63;5054006;28;20033;-64
2022/09/03 13:55:30;;;;;;;0.80;0.55;;;;;;;27.83;47.36;99883.91;5013206;28;20402;-64
2022/09/03 13:58:17;;;;;;;0.40;0.40;;;;;;;27.45;48.78;99891.22;5053839;28;20097;-64
2022/09/03 14:00:48;;;;;;;2.28;0.80;;;;;;;27.19;47.31;99886.13;5053616;28;20037;-65
2022/09/03 14:03:40;;;;;;;0.55;0.50;;;;;;;26.14;48.50;99893.06;5054100;28;20037;-65
2022/09/03 14:06:25;;;;;;;0.63;0.47;;;;;;;26.00;51.27;99883.09;5053796;28;20033;-64
2022/09/03 14:09:06;;;;;;;0.80;0.60;;;;;;;25.60;52.88;99887.66;5053717;28;20636;-65
2022/09/03 14:11:45;;;;;;;0.75;0.50;;;;;;;25.57;52.40;99869.97;5053686;28;20120;-64
2022/09/03 14:14:20;;;;;;;0.50;0.43;;;;;;;25.68;52.66;99865.25;5053735;28;20060;-64
2022/09/03 14:16:56;;;;;;;0.85;0.50;;;;;;;25.51;52.16;99879.28;5053564;28;20040;-65
2022/09/03 14:19:31;;;;;;;0.30;0.30;;;;;;;25.17;50.98;99876.44;5053322;28;20048;-66
2022/09/03 14:22:14;;;;;;;0.88;0.40;;;;;;;25.25;52.96;99881.31;5053657;28;20311;-66
2022/09/03 14:25:00;;;;;;;0.20;0.20;;;;;;;25.15;54.32;99873.97;5053578;28;20385;-65
2022/09/03 14:27:31;;;;;;;0.63;0.30;;;;;;;25.21;54.08;99880.22;5053588;28;20414;-66
2022/09/03 14:30:17;;;;;;;0.40;0.40;;;;;;;25.10;53.89;99884.91;5053132;28;20083;-66
2022/09/03 14:33:23;;;;;;;0.52;0.40;;;;;;;24.66;52.40;99879.25;5053531;28;20037;-66
2022/09/03 14:36:06;;;;;;;0.50;0.43;;;;;;;24.29;53.85;99891.22;5053494;28;20115;-63
2022/09/03 14:38:57;;;;;;;0.43;0.43;;;;;;;24.19;56.22;99899.41;5053245;28;20037;-64
2022/09/03 14:41:41;;;;;;;0.47;0.47;;;;;;;24.07;58.17;99899.66;5053274;28;20127;-64
2022/09/03 14:44:43;;;;;;;0.35;0.35;;;;;;;24.03;56.16;99901.28;5053147;28;20086;-65
2022/09/03 14:47:22;;;;;;;0.57;0.45;;;;;;;23.94;59.53;99894.75;5053152;28;20037;-65
2022/09/03 14:50:06;;;;;;;0.40;0.40;;;;;;;23.96;58.60;99905.34;5052872;28;20048;-65
2022/09/03 14:53:09;;;;;;;0.40;0.35;;;;;;;23.84;60.92;99905.59;5051789;28;20394;-64
2022/09/03 14:56:01;;;;;;;0.55;0.40;;;;;;;23.63;60.54;99896.59;5052899;28;20033;-64
2022/09/03 14:59:05;;;;;;;0.52;0.40;;;;;;;23.64;60.31;99902.84;5052976;28;20032;-65
2022/09/03 15:01:36;;;;;;;0.40;0.32;;;;;;;23.33;62.67;99905.41;5008239;28;20037;-64
2022/09/03 15:04:24;;;;;;;0.95;0.52;;;;;;;23.24;60.52;99913.25;5052747;28;20409;-64
2022/09/03 15:07:21;;;;;;;0.63;0.45;;;;;;;23.09;60.79;99918.63;5051894;28;20565;-64
2022/09/03 15:10:06;;;;;;;0.68;0.43;;;;;;;23.01;62.52;99919.09;5052621;28;20036;-64
2022/09/03 15:12:41;;;;;;;1.45;0.82;;;;;;;22.88;62.64;99922.28;5052478;28;20098;-65
2022/09/03 15:15:30;;;;;;;0.40;0.40;;;;;;;22.75;63.38;99918.09;5052558;28;20048;-63
2022/09/03 15:18:22;;;;;;;1.17;0.68;;;;;;;22.75;63.35;99928.94;5051863;28;20055;-65
2022/09/03 15:20:51;;;;;;;0.22;0.22;;;;;;;22.62;63.76;99921.25;5052206;28;20494;-65
2022/09/03 15:23:53;;;;;;;0.45;0.40;;;;;;;22.61;65.28;99933.19;5052530;28;20036;-64
2022/09/03 15:26:27;;;;;;;0.20;0.20;;;;;;;22.62;65.99;99932.09;5050884;28;20047;-64
2022/09/03 15:29:31;;;;;;;1.08;0.52;;;;;;;22.62;65.96;99930.22;5052240;28;20132;-65
2022/09/03 15:32:02;;;;;;;0.63;0.50;;;;;;;22.51;66.89;99924.97;5052055;28;20041;-64
2022/09/03 15:34:42;;;;;;;0.73;0.65;;;;;;;22.44;66.05;99931.44;5050931;28;20037;-65
2022/09/03 15:37:18;;;;;;;0.32;0.30;;;;;;;22.31;66.81;99928.34;5052043;28;20037;-65
2022/09/03 15:39:45;;;;;;;0.70;0.60;;;;;;;22.26;67.84;99936.44;5051769;28;20116;-66
2022/09/03 15:42:22;;;;;;;0.77;0.32;;;;;;;22.19;67.16;99928.50;5051970;28;20055;-64
2022/09/03 15:44:52;;;;;;;0.88;0.60;;;;;;;22.07;67.36;99930.53;5052034;28;20495;-65
2022/09/03 15:47:50;;;;;;;0.70;0.45;;;;;;;21.93;69.23;99917.38;5050605;28;20041;-65
2022/09/03 15:50:47;;;;;;;0.95;0.60;;;;;;;21.99;68.70;99931.00;5051786;28;20068;-65
2022/09/03 15:53:30;;;;;;;1.10;0.63;;;;;;;21.94;69.22;99927.16;5051940;28;20047;-64
2022/09/03 15:56:22;;;;;;;0.57;0.57;;;;;;;22.01;69.09;99931.53;5051872;28;20506;-64
2022/09/03 15:58:56;;;;;;;1.27;0.68;;;;;;;21.97;69.20;99935.84;5051753;28;20040;-65
2022/09/03 16:01:23;;;;;;;0.57;0.40;;;;;;;21.99;71.17;99939.13;5051591;28;20029;-64
2022/09/03 16:03:48;;;;;;;2.63;0.50;;;;;;;22.03;70.11;99937.53;5051683;28;20493;-64
2022/09/03 16:06:36;;;;;;;0.60;0.47;;;;;;;22.04;70.64;99936.44;5051485;28;20033;-64
2022/09/03 16:09:30;;;;;;;0.55;0.47;;;;;;;21.98;70.63;99932.06;5051553;28;20033;-65
2022/09/03 16:12:09;;;;;;;1.05;0.60;;;;;;;22.01;71.61;99923.41;5051532;28;20036;-64
2022/09/03 16:14:43;;;;;;;1.08;0.80;;;;;;;21.97;70.72;99923.09;5051597;28;20112;-63
2022/09/03 16:17:31;;;;;;;0.50;0.50;;;;;;;22.01;71.17;99926.13;5051203;28;20048;-65
2022/09/03 16:20:13;;;;;;;0.55;0.40;;;;;;;22.09;70.33;99923.78;5011608;28;20060;-64
2022/09/03 16:22:54;;;;;;;0.90;0.52;;;;;;;22.04;71.64;99925.59;5052278;28;20124;-64
2022/09/03 16:25:29;;;;;;;0.90;0.60;;;;;;;22.12;70.87;99923.28;5051602;28;20032;-63
2022/09/03 16:28:07;;;;;;;0.60;0.60;;;;;;;22.09;70.18;99922.97;5051293;28;20445;-64
2022/09/03 16:30:45;;;;;;;1.10;0.70;;;;;;;22.15;70.31;99924.66;5049710;28;20094;-64
2022/09/03 16:33:36;;;;;;;0.50;0.50;;;;;;;22.20;71.08;99911.16;5051398;28;20059;-64
2022/09/03 16:36:20;;;;;;;0.30;0.28;;;;;;;22.16;69.29;99918.97;5051327;28;20029;-65